Pikes Falls, Vermont
Current Conditions -  °F | °C
As of 5:33 AM on Saturday 25 Oct 2014 (Local Time) from KVSF Reporting Station
Few Clouds Few Clouds  
Wind Chill: 34°   Ceiling: Unl
Heat Index: 34°   Visibility: 10mi
Dew Point: 33°   Wind: 0mph
Humidity: 96%   Direction: NA
Pressure: 29.78"   Gusts: NA
Location:  43.1008°N, 72.8076°W
Report Text: KVSF 250933Z AUTO 00000KT 10SM FEW001 01/01 A2978 RMK AO2 T00110006
Loading
Personal Weather Stations






























Interactive Weather Map
Tropical Storm Tracking
New forecast layout! Learn more

10-Day Weather Forecast

Advertisements
Track Severe Weather on mobile